sensor_id;sensor_type;location;lat;lon;timestamp;P1;durP1;ratioP1;P2;durP2;ratioP2
78614;SDS011;67937;52.488;20.952;2024-03-08T00:01:55;15.10;;;7.00;;
78614;SDS011;67937;52.488;20.952;2024-03-08T00:04:23;13.70;;;7.60;;
78614;SDS011;67937;52.488;20.952;2024-03-08T00:06:51;12.80;;;7.10;;
78614;SDS011;67937;52.488;20.952;2024-03-08T00:09:19;11.80;;;6.50;;
78614;SDS011;67937;52.488;20.952;2024-03-08T00:11:47;13.40;;;7.40;;
78614;SDS011;67937;52.488;20.952;2024-03-08T00:14:16;12.70;;;7.20;;
78614;SDS011;67937;52.488;20.952;2024-03-08T00:16:44;15.90;;;7.70;;
78614;SDS011;67937;52.488;20.952;2024-03-08T00:19:12;13.50;;;6.70;;
78614;SDS011;67937;52.488;20.952;2024-03-08T00:21:40;12.20;;;6.80;;
78614;SDS011;67937;52.488;20.952;2024-03-08T00:24:08;15.20;;;6.60;;
78614;SDS011;67937;52.488;20.952;2024-03-08T00:26:36;15.30;;;7.70;;
78614;SDS011;67937;52.488;20.952;2024-03-08T00:29:04;13.10;;;6.20;;
78614;SDS011;67937;52.488;20.952;2024-03-08T00:31:34;16.10;;;7.10;;
78614;SDS011;67937;52.488;20.952;2024-03-08T00:34:02;15.50;;;6.80;;
78614;SDS011;67937;52.488;20.952;2024-03-08T00:36:30;12.90;;;5.80;;
78614;SDS011;67937;52.488;20.952;2024-03-08T00:38:58;16.60;;;8.10;;
78614;SDS011;67937;52.488;20.952;2024-03-08T00:41:27;16.80;;;8.00;;
78614;SDS011;67937;52.488;20.952;2024-03-08T00:43:56;16.10;;;7.90;;
78614;SDS011;67937;52.488;20.952;2024-03-08T00:46:24;13.90;;;6.40;;
78614;SDS011;67937;52.488;20.952;2024-03-08T00:48:51;13.40;;;6.30;;
78614;SDS011;67937;52.488;20.952;2024-03-08T00:51:19;13.60;;;6.50;;
78614;SDS011;67937;52.488;20.952;2024-03-08T00:53:47;13.60;;;7.00;;
78614;SDS011;67937;52.488;20.952;2024-03-08T00:56:15;17.50;;;7.70;;
78614;SDS011;67937;52.488;20.952;2024-03-08T00:58:43;17.10;;;7.10;;
78614;SDS011;67937;52.488;20.952;2024-03-08T01:01:12;17.50;;;9.10;;
78614;SDS011;67937;52.488;20.952;2024-03-08T01:03:45;15.50;;;7.40;;
78614;SDS011;67937;52.488;20.952;2024-03-08T01:06:13;20.30;;;8.30;;
78614;SDS011;67937;52.488;20.952;2024-03-08T01:08:41;15.60;;;8.20;;
78614;SDS011;67937;52.488;20.952;2024-03-08T01:11:09;19.30;;;9.00;;
78614;SDS011;67937;52.488;20.952;2024-03-08T01:13:37;19.40;;;10.00;;
78614;SDS011;67937;52.488;20.952;2024-03-08T01:16:05;25.30;;;11.20;;
78614;SDS011;67937;52.488;20.952;2024-03-08T01:18:33;17.30;;;8.50;;
78614;SDS011;67937;52.488;20.952;2024-03-08T01:21:01;17.90;;;9.70;;
78614;SDS011;67937;52.488;20.952;2024-03-08T01:23:29;20.90;;;9.40;;
78614;SDS011;67937;52.488;20.952;2024-03-08T01:25:57;20.40;;;9.00;;
78614;SDS011;67937;52.488;20.952;2024-03-08T01:28:25;13.70;;;8.10;;
78614;SDS011;67937;52.488;20.952;2024-03-08T01:30:54;19.50;;;8.70;;
78614;SDS011;67937;52.488;20.952;2024-03-08T01:33:23;19.00;;;8.40;;
78614;SDS011;67937;52.488;20.952;2024-03-08T01:35:53;19.30;;;8.80;;
78614;SDS011;67937;52.488;20.952;2024-03-08T01:38:21;18.10;;;7.70;;
78614;SDS011;67937;52.488;20.952;2024-03-08T01:40:52;18.60;;;9.00;;
78614;SDS011;67937;52.488;20.952;2024-03-08T01:43:20;13.40;;;6.70;;
78614;SDS011;67937;52.488;20.952;2024-03-08T01:45:49;21.10;;;8.00;;
78614;SDS011;67937;52.488;20.952;2024-03-08T01:48:18;19.70;;;8.00;;
78614;SDS011;67937;52.488;20.952;2024-03-08T01:50:50;14.50;;;8.20;;
78614;SDS011;67937;52.488;20.952;2024-03-08T01:53:21;13.50;;;6.60;;
78614;SDS011;67937;52.488;20.952;2024-03-08T01:55:50;14.60;;;7.60;;
78614;SDS011;67937;52.488;20.952;2024-03-08T01:58:22;13.70;;;6.90;;
78614;SDS011;67937;52.488;20.952;2024-03-08T02:00:50;16.10;;;8.10;;
78614;SDS011;67937;52.488;20.952;2024-03-08T02:03:20;20.50;;;8.70;;
78614;SDS011;67937;52.488;20.952;2024-03-08T02:05:49;22.40;;;10.20;;
78614;SDS011;67937;52.488;20.952;2024-03-08T02:08:18;20.80;;;10.20;;
78614;SDS011;67937;52.488;20.952;2024-03-08T02:10:49;17.30;;;9.00;;
78614;SDS011;67937;52.488;20.952;2024-03-08T02:13:17;18.50;;;9.80;;
78614;SDS011;67937;52.488;20.952;2024-03-08T02:15:55;19.50;;;10.60;;
78614;SDS011;67937;52.488;20.952;2024-03-08T02:18:25;21.90;;;10.50;;
78614;SDS011;67937;52.488;20.952;2024-03-08T02:20:55;23.00;;;10.10;;
78614;SDS011;67937;52.488;20.952;2024-03-08T02:23:24;21.80;;;9.70;;
78614;SDS011;67937;52.488;20.952;2024-03-08T02:25:53;22.50;;;10.60;;
78614;SDS011;67937;52.488;20.952;2024-03-08T02:28:23;26.20;;;11.10;;
78614;SDS011;67937;52.488;20.952;2024-03-08T02:30:52;25.90;;;12.20;;
78614;SDS011;67937;52.488;20.952;2024-03-08T02:33:22;21.80;;;11.30;;
78614;SDS011;67937;52.488;20.952;2024-03-08T02:35:51;20.60;;;10.60;;
78614;SDS011;67937;52.488;20.952;2024-03-08T02:38:20;25.40;;;11.20;;
78614;SDS011;67937;52.488;20.952;2024-03-08T02:40:51;21.30;;;10.60;;
78614;SDS011;67937;52.488;20.952;2024-03-08T02:43:20;24.10;;;11.30;;
78614;SDS011;67937;52.488;20.952;2024-03-08T02:45:50;26.60;;;10.70;;
78614;SDS011;67937;52.488;20.952;2024-03-08T02:48:20;30.50;;;12.20;;
78614;SDS011;67937;52.488;20.952;2024-03-08T02:50:48;27.50;;;11.60;;
78614;SDS011;67937;52.488;20.952;2024-03-08T02:53:17;24.30;;;11.60;;
78614;SDS011;67937;52.488;20.952;2024-03-08T02:55:46;23.40;;;11.10;;
78614;SDS011;67937;52.488;20.952;2024-03-08T02:58:14;22.20;;;10.20;;
78614;SDS011;67937;52.488;20.952;2024-03-08T03:00:42;26.60;;;10.70;;
78614;SDS011;67937;52.488;20.952;2024-03-08T03:03:10;35.10;;;14.90;;
78614;SDS011;67937;52.488;20.952;2024-03-08T03:05:38;37.10;;;14.30;;
78614;SDS011;67937;52.488;20.952;2024-03-08T03:08:07;25.20;;;12.00;;
78614;SDS011;67937;52.488;20.952;2024-03-08T03:10:37;32.90;;;11.80;;
78614;SDS011;67937;52.488;20.952;2024-03-08T03:13:05;36.50;;;14.60;;
78614;SDS011;67937;52.488;20.952;2024-03-08T03:15:34;39.50;;;16.10;;
78614;SDS011;67937;52.488;20.952;2024-03-08T03:18:02;48.40;;;16.90;;
78614;SDS011;67937;52.488;20.952;2024-03-08T03:20:34;48.80;;;16.90;;
78614;SDS011;67937;52.488;20.952;2024-03-08T03:23:06;41.60;;;15.10;;
78614;SDS011;67937;52.488;20.952;2024-03-08T03:25:35;43.80;;;14.70;;
78614;SDS011;67937;52.488;20.952;2024-03-08T03:28:05;36.30;;;11.80;;
78614;SDS011;67937;52.488;20.952;2024-03-08T03:30:34;28.60;;;12.10;;
78614;SDS011;67937;52.488;20.952;2024-03-08T03:33:03;32.90;;;13.00;;
78614;SDS011;67937;52.488;20.952;2024-03-08T03:35:33;20.20;;;9.60;;
78614;SDS011;67937;52.488;20.952;2024-03-08T03:38:02;27.10;;;13.10;;
78614;SDS011;67937;52.488;20.952;2024-03-08T03:40:33;29.30;;;12.10;;
78614;SDS011;67937;52.488;20.952;2024-03-08T03:43:02;28.00;;;12.10;;
78614;SDS011;67937;52.488;20.952;2024-03-08T03:45:30;31.60;;;13.40;;
78614;SDS011;67937;52.488;20.952;2024-03-08T03:48:02;35.50;;;15.30;;
78614;SDS011;67937;52.488;20.952;2024-03-08T03:50:30;27.00;;;11.90;;
78614;SDS011;67937;52.488;20.952;2024-03-08T03:53:00;29.70;;;13.00;;
78614;SDS011;67937;52.488;20.952;2024-03-08T03:55:29;24.20;;;10.50;;
78614;SDS011;67937;52.488;20.952;2024-03-08T03:57:57;21.20;;;10.60;;
78614;SDS011;67937;52.488;20.952;2024-03-08T04:00:27;25.10;;;9.90;;
78614;SDS011;67937;52.488;20.952;2024-03-08T04:02:55;19.40;;;10.00;;
78614;SDS011;67937;52.488;20.952;2024-03-08T04:05:26;23.00;;;10.00;;
78614;SDS011;67937;52.488;20.952;2024-03-08T04:07:54;25.80;;;12.10;;
78614;SDS011;67937;52.488;20.952;2024-03-08T04:10:23;29.10;;;11.60;;
78614;SDS011;67937;52.488;20.952;2024-03-08T04:12:51;31.70;;;12.80;;
78614;SDS011;67937;52.488;20.952;2024-03-08T04:15:19;27.80;;;10.70;;
78614;SDS011;67937;52.488;20.952;2024-03-08T04:17:47;22.10;;;10.50;;
78614;SDS011;67937;52.488;20.952;2024-03-08T04:20:15;21.80;;;10.40;;
78614;SDS011;67937;52.488;20.952;2024-03-08T04:22:43;19.40;;;8.90;;
78614;SDS011;67937;52.488;20.952;2024-03-08T04:25:13;15.90;;;9.50;;
78614;SDS011;67937;52.488;20.952;2024-03-08T04:27:41;22.40;;;11.00;;
78614;SDS011;67937;52.488;20.952;2024-03-08T04:30:11;20.80;;;9.90;;
78614;SDS011;67937;52.488;20.952;2024-03-08T04:32:39;24.80;;;9.90;;
78614;SDS011;67937;52.488;20.952;2024-03-08T04:35:07;22.30;;;8.70;;
78614;SDS011;67937;52.488;20.952;2024-03-08T04:37:35;23.70;;;8.50;;
78614;SDS011;67937;52.488;20.952;2024-03-08T04:40:04;19.90;;;8.60;;
78614;SDS011;67937;52.488;20.952;2024-03-08T04:42:32;25.40;;;10.80;;
78614;SDS011;67937;52.488;20.952;2024-03-08T04:45:02;23.40;;;10.70;;
78614;SDS011;67937;52.488;20.952;2024-03-08T04:47:31;26.40;;;10.70;;
78614;SDS011;67937;52.488;20.952;2024-03-08T04:49:59;18.30;;;10.30;;
78614;SDS011;67937;52.488;20.952;2024-03-08T04:52:27;20.80;;;9.30;;
78614;SDS011;67937;52.488;20.952;2024-03-08T04:54:55;21.50;;;9.30;;
78614;SDS011;67937;52.488;20.952;2024-03-08T04:57:23;20.60;;;10.20;;
78614;SDS011;67937;52.488;20.952;2024-03-08T04:59:52;22.50;;;9.50;;
78614;SDS011;67937;52.488;20.952;2024-03-08T05:02:20;22.00;;;9.20;;
78614;SDS011;67937;52.488;20.952;2024-03-08T05:04:49;24.50;;;11.50;;
78614;SDS011;67937;52.488;20.952;2024-03-08T05:07:17;22.90;;;12.20;;
78614;SDS011;67937;52.488;20.952;2024-03-08T05:09:45;28.00;;;11.80;;
78614;SDS011;67937;52.488;20.952;2024-03-08T05:12:18;20.10;;;10.30;;
78614;SDS011;67937;52.488;20.952;2024-03-08T05:14:46;24.20;;;9.70;;
78614;SDS011;67937;52.488;20.952;2024-03-08T05:17:16;26.50;;;10.60;;
78614;SDS011;67937;52.488;20.952;2024-03-08T05:19:44;21.30;;;10.00;;
78614;SDS011;67937;52.488;20.952;2024-03-08T05:22:12;28.60;;;11.60;;
78614;SDS011;67937;52.488;20.952;2024-03-08T05:24:40;26.10;;;10.30;;
78614;SDS011;67937;52.488;20.952;2024-03-08T05:27:08;25.00;;;10.40;;
78614;SDS011;67937;52.488;20.952;2024-03-08T05:29:37;25.20;;;11.10;;
78614;SDS011;67937;52.488;20.952;2024-03-08T05:32:05;21.00;;;10.40;;
78614;SDS011;67937;52.488;20.952;2024-03-08T05:34:33;23.90;;;10.60;;
78614;SDS011;67937;52.488;20.952;2024-03-08T05:37:01;18.70;;;8.80;;
78614;SDS011;67937;52.488;20.952;2024-03-08T05:39:29;22.30;;;9.10;;
78614;SDS011;67937;52.488;20.952;2024-03-08T05:41:57;20.00;;;9.60;;
78614;SDS011;67937;52.488;20.952;2024-03-08T05:44:26;25.70;;;10.90;;
78614;SDS011;67937;52.488;20.952;2024-03-08T05:46:55;26.40;;;11.60;;
78614;SDS011;67937;52.488;20.952;2024-03-08T05:49:23;25.70;;;11.10;;
78614;SDS011;67937;52.488;20.952;2024-03-08T05:51:51;26.80;;;10.50;;
78614;SDS011;67937;52.488;20.952;2024-03-08T05:54:20;25.30;;;10.30;;
78614;SDS011;67937;52.488;20.952;2024-03-08T05:56:50;24.40;;;11.60;;
78614;SDS011;67937;52.488;20.952;2024-03-08T05:59:19;22.50;;;11.00;;
78614;SDS011;67937;52.488;20.952;2024-03-08T06:01:49;27.60;;;12.90;;
78614;SDS011;67937;52.488;20.952;2024-03-08T06:04:17;28.70;;;12.20;;
78614;SDS011;67937;52.488;20.952;2024-03-08T06:06:45;33.30;;;13.80;;
78614;SDS011;67937;52.488;20.952;2024-03-08T06:09:13;34.80;;;13.50;;
78614;SDS011;67937;52.488;20.952;2024-03-08T06:11:49;31.30;;;13.80;;
78614;SDS011;67937;52.488;20.952;2024-03-08T06:14:17;36.30;;;13.30;;
78614;SDS011;67937;52.488;20.952;2024-03-08T06:16:45;34.20;;;14.00;;
78614;SDS011;67937;52.488;20.952;2024-03-08T06:19:16;33.10;;;14.80;;
78614;SDS011;67937;52.488;20.952;2024-03-08T06:21:44;36.90;;;16.90;;
78614;SDS011;67937;52.488;20.952;2024-03-08T06:24:12;30.60;;;15.00;;
78614;SDS011;67937;52.488;20.952;2024-03-08T06:26:41;33.20;;;13.90;;
78614;SDS011;67937;52.488;20.952;2024-03-08T06:29:09;32.50;;;14.30;;
78614;SDS011;67937;52.488;20.952;2024-03-08T06:31:37;35.00;;;14.60;;
78614;SDS011;67937;52.488;20.952;2024-03-08T06:34:06;32.90;;;15.40;;
78614;SDS011;67937;52.488;20.952;2024-03-08T06:36:34;33.80;;;13.80;;
78614;SDS011;67937;52.488;20.952;2024-03-08T06:39:04;36.30;;;15.50;;
78614;SDS011;67937;52.488;20.952;2024-03-08T06:41:38;26.80;;;14.60;;
78614;SDS011;67937;52.488;20.952;2024-03-08T06:44:06;31.60;;;15.00;;
78614;SDS011;67937;52.488;20.952;2024-03-08T06:46:35;42.00;;;18.30;;
78614;SDS011;67937;52.488;20.952;2024-03-08T06:49:04;36.60;;;16.60;;
78614;SDS011;67937;52.488;20.952;2024-03-08T06:51:33;30.70;;;15.70;;
78614;SDS011;67937;52.488;20.952;2024-03-08T06:54:01;35.90;;;16.50;;
78614;SDS011;67937;52.488;20.952;2024-03-08T06:56:35;30.00;;;14.90;;
78614;SDS011;67937;52.488;20.952;2024-03-08T06:59:03;30.60;;;14.60;;
78614;SDS011;67937;52.488;20.952;2024-03-08T07:01:31;32.10;;;14.60;;
78614;SDS011;67937;52.488;20.952;2024-03-08T07:04:01;31.90;;;16.00;;
78614;SDS011;67937;52.488;20.952;2024-03-08T07:06:32;34.40;;;15.70;;
78614;SDS011;67937;52.488;20.952;2024-03-08T07:09:25;40.70;;;17.50;;
78614;SDS011;67937;52.488;20.952;2024-03-08T07:11:53;29.50;;;16.70;;
78614;SDS011;67937;52.488;20.952;2024-03-08T07:14:22;40.40;;;17.60;;
78614;SDS011;67937;52.488;20.952;2024-03-08T07:16:50;34.50;;;17.50;;
78614;SDS011;67937;52.488;20.952;2024-03-08T07:19:19;35.90;;;16.40;;
78614;SDS011;67937;52.488;20.952;2024-03-08T07:21:48;37.10;;;18.20;;
78614;SDS011;67937;52.488;20.952;2024-03-08T07:24:15;35.20;;;17.10;;
78614;SDS011;67937;52.488;20.952;2024-03-08T07:27:04;32.20;;;15.80;;
78614;SDS011;67937;52.488;20.952;2024-03-08T07:29:32;41.60;;;16.80;;
78614;SDS011;67937;52.488;20.952;2024-03-08T07:32:00;39.10;;;17.10;;
78614;SDS011;67937;52.488;20.952;2024-03-08T07:34:40;31.30;;;16.60;;
78614;SDS011;67937;52.488;20.952;2024-03-08T07:37:08;39.60;;;16.90;;
78614;SDS011;67937;52.488;20.952;2024-03-08T07:39:37;33.70;;;16.10;;
78614;SDS011;67937;52.488;20.952;2024-03-08T07:42:06;29.30;;;13.90;;
78614;SDS011;67937;52.488;20.952;2024-03-08T07:44:34;25.00;;;12.10;;
78614;SDS011;67937;52.488;20.952;2024-03-08T07:47:02;32.20;;;14.20;;
78614;SDS011;67937;52.488;20.952;2024-03-08T07:49:31;34.10;;;14.50;;
78614;SDS011;67937;52.488;20.952;2024-03-08T07:51:59;26.10;;;12.90;;
78614;SDS011;67937;52.488;20.952;2024-03-08T07:54:26;25.70;;;13.10;;
78614;SDS011;67937;52.488;20.952;2024-03-08T07:56:54;13.00;;;7.00;;
78614;SDS011;67937;52.488;20.952;2024-03-08T07:59:22;25.80;;;13.10;;
78614;SDS011;67937;52.488;20.952;2024-03-08T08:01:50;23.40;;;11.00;;
78614;SDS011;67937;52.488;20.952;2024-03-08T08:04:18;21.20;;;11.20;;
78614;SDS011;67937;52.488;20.952;2024-03-08T08:06:51;23.80;;;11.40;;
78614;SDS011;67937;52.488;20.952;2024-03-08T08:09:19;25.70;;;13.00;;
78614;SDS011;67937;52.488;20.952;2024-03-08T08:11:54;21.90;;;11.30;;
78614;SDS011;67937;52.488;20.952;2024-03-08T08:14:22;19.70;;;11.30;;
78614;SDS011;67937;52.488;20.952;2024-03-08T08:16:50;26.20;;;11.80;;
78614;SDS011;67937;52.488;20.952;2024-03-08T08:19:19;24.70;;;11.30;;
78614;SDS011;67937;52.488;20.952;2024-03-08T08:21:47;10.30;;;6.20;;
78614;SDS011;67937;52.488;20.952;2024-03-08T08:24:16;26.70;;;11.30;;
78614;SDS011;67937;52.488;20.952;2024-03-08T08:26:44;18.20;;;8.70;;
78614;SDS011;67937;52.488;20.952;2024-03-08T08:29:12;10.00;;;6.10;;
78614;SDS011;67937;52.488;20.952;2024-03-08T08:31:40;12.90;;;6.70;;
78614;SDS011;67937;52.488;20.952;2024-03-08T08:34:11;17.80;;;10.20;;
78614;SDS011;67937;52.488;20.952;2024-03-08T08:36:40;16.80;;;8.30;;
78614;SDS011;67937;52.488;20.952;2024-03-08T08:39:08;23.40;;;11.40;;
78614;SDS011;67937;52.488;20.952;2024-03-08T08:41:40;21.90;;;9.80;;
78614;SDS011;67937;52.488;20.952;2024-03-08T08:44:08;20.50;;;9.80;;
78614;SDS011;67937;52.488;20.952;2024-03-08T08:46:38;20.40;;;11.30;;
78614;SDS011;67937;52.488;20.952;2024-03-08T08:49:06;17.60;;;8.80;;
78614;SDS011;67937;52.488;20.952;2024-03-08T08:51:36;21.40;;;9.20;;
78614;SDS011;67937;52.488;20.952;2024-03-08T08:54:05;15.10;;;6.30;;
78614;SDS011;67937;52.488;20.952;2024-03-08T08:56:33;13.40;;;5.80;;
78614;SDS011;67937;52.488;20.952;2024-03-08T08:59:01;19.20;;;6.70;;
78614;SDS011;67937;52.488;20.952;2024-03-08T09:01:31;11.00;;;6.00;;
78614;SDS011;67937;52.488;20.952;2024-03-08T09:03:59;16.80;;;9.30;;
78614;SDS011;67937;52.488;20.952;2024-03-08T09:06:27;15.10;;;8.30;;
78614;SDS011;67937;52.488;20.952;2024-03-08T09:08:56;18.20;;;9.20;;
78614;SDS011;67937;52.488;20.952;2024-03-08T09:11:24;10.50;;;5.00;;
78614;SDS011;67937;52.488;20.952;2024-03-08T09:13:52;19.20;;;8.90;;
78614;SDS011;67937;52.488;20.952;2024-03-08T09:16:20;12.30;;;6.70;;
78614;SDS011;67937;52.488;20.952;2024-03-08T09:18:49;10.90;;;4.70;;
78614;SDS011;67937;52.488;20.952;2024-03-08T09:21:17;15.40;;;7.20;;
78614;SDS011;67937;52.488;20.952;2024-03-08T09:23:45;10.40;;;5.50;;
78614;SDS011;67937;52.488;20.952;2024-03-08T09:26:13;5.00;;;3.40;;
78614;SDS011;67937;52.488;20.952;2024-03-08T09:28:41;12.00;;;6.60;;
78614;SDS011;67937;52.488;20.952;2024-03-08T09:31:09;12.10;;;6.60;;
78614;SDS011;67937;52.488;20.952;2024-03-08T09:33:38;9.50;;;6.70;;
78614;SDS011;67937;52.488;20.952;2024-03-08T09:36:06;10.70;;;7.10;;
78614;SDS011;67937;52.488;20.952;2024-03-08T09:38:35;14.60;;;7.10;;
78614;SDS011;67937;52.488;20.952;2024-03-08T09:41:03;7.40;;;4.50;;
78614;SDS011;67937;52.488;20.952;2024-03-08T09:43:31;8.40;;;5.80;;
78614;SDS011;67937;52.488;20.952;2024-03-08T09:46:00;9.10;;;4.30;;
78614;SDS011;67937;52.488;20.952;2024-03-08T09:48:28;11.30;;;5.60;;
78614;SDS011;67937;52.488;20.952;2024-03-08T09:50:57;6.90;;;4.60;;
78614;SDS011;67937;52.488;20.952;2024-03-08T09:53:26;9.50;;;5.00;;
78614;SDS011;67937;52.488;20.952;2024-03-08T09:55:55;5.50;;;3.30;;
78614;SDS011;67937;52.488;20.952;2024-03-08T09:58:23;9.10;;;5.50;;
78614;SDS011;67937;52.488;20.952;2024-03-08T10:01:05;7.50;;;5.40;;
78614;SDS011;67937;52.488;20.952;2024-03-08T10:03:33;12.90;;;5.70;;
78614;SDS011;67937;52.488;20.952;2024-03-08T10:06:02;11.60;;;6.20;;
78614;SDS011;67937;52.488;20.952;2024-03-08T10:08:32;5.10;;;3.30;;
78614;SDS011;67937;52.488;20.952;2024-03-08T10:11:00;11.80;;;5.80;;
78614;SDS011;67937;52.488;20.952;2024-03-08T10:13:29;8.60;;;5.50;;
78614;SDS011;67937;52.488;20.952;2024-03-08T10:15:58;6.20;;;4.80;;
78614;SDS011;67937;52.488;20.952;2024-03-08T10:18:26;5.20;;;3.30;;
78614;SDS011;67937;52.488;20.952;2024-03-08T10:23:33;9.80;;;5.30;;
78614;SDS011;67937;52.488;20.952;2024-03-08T10:26:09;10.30;;;5.90;;
78614;SDS011;67937;52.488;20.952;2024-03-08T10:28:42;8.80;;;4.20;;
78614;SDS011;67937;52.488;20.952;2024-03-08T10:31:12;7.40;;;4.60;;
78614;SDS011;67937;52.488;20.952;2024-03-08T10:33:41;9.60;;;5.90;;
78614;SDS011;67937;52.488;20.952;2024-03-08T10:36:11;11.30;;;6.00;;
78614;SDS011;67937;52.488;20.952;2024-03-08T10:38:41;6.90;;;3.40;;
78614;SDS011;67937;52.488;20.952;2024-03-08T10:41:13;6.80;;;3.80;;
78614;SDS011;67937;52.488;20.952;2024-03-08T10:43:52;9.20;;;4.80;;
78614;SDS011;67937;52.488;20.952;2024-03-08T10:49:25;6.40;;;4.00;;
78614;SDS011;67937;52.488;20.952;2024-03-08T10:52:02;9.80;;;6.10;;
78614;SDS011;67937;52.488;20.952;2024-03-08T10:54:32;6.50;;;4.80;;
78614;SDS011;67937;52.488;20.952;2024-03-08T10:57:02;8.20;;;5.00;;
78614;SDS011;67937;52.488;20.952;2024-03-08T10:59:34;9.90;;;5.30;;
78614;SDS011;67937;52.488;20.952;2024-03-08T11:02:03;7.30;;;3.90;;
78614;SDS011;67937;52.488;20.952;2024-03-08T11:04:32;5.00;;;3.30;;
78614;SDS011;67937;52.488;20.952;2024-03-08T11:07:01;7.50;;;3.90;;
78614;SDS011;67937;52.488;20.952;2024-03-08T11:09:34;7.80;;;4.40;;
78614;SDS011;67937;52.488;20.952;2024-03-08T11:14:59;8.50;;;4.60;;
78614;SDS011;67937;52.488;20.952;2024-03-08T11:19:58;9.70;;;5.20;;
78614;SDS011;67937;52.488;20.952;2024-03-08T11:22:32;7.10;;;3.60;;
78614;SDS011;67937;52.488;20.952;2024-03-08T11:25:01;6.20;;;4.20;;
78614;SDS011;67937;52.488;20.952;2024-03-08T11:27:35;8.20;;;4.60;;
78614;SDS011;67937;52.488;20.952;2024-03-08T11:30:05;8.20;;;3.80;;
78614;SDS011;67937;52.488;20.952;2024-03-08T11:32:38;6.90;;;4.50;;
78614;SDS011;67937;52.488;20.952;2024-03-08T11:35:17;9.10;;;4.90;;
78614;SDS011;67937;52.488;20.952;2024-03-08T11:37:49;4.30;;;2.40;;
78614;SDS011;67937;52.488;20.952;2024-03-08T11:40:17;7.90;;;4.40;;
78614;SDS011;67937;52.488;20.952;2024-03-08T11:42:46;5.40;;;4.00;;
78614;SDS011;67937;52.488;20.952;2024-03-08T11:45:15;11.80;;;5.20;;
78614;SDS011;67937;52.488;20.952;2024-03-08T11:47:44;5.50;;;3.50;;
78614;SDS011;67937;52.488;20.952;2024-03-08T11:50:13;3.40;;;3.00;;
78614;SDS011;67937;52.488;20.952;2024-03-08T11:52:43;8.90;;;3.90;;
78614;SDS011;67937;52.488;20.952;2024-03-08T11:55:11;18.00;;;5.20;;
78614;SDS011;67937;52.488;20.952;2024-03-08T11:57:40;8.80;;;4.50;;
78614;SDS011;67937;52.488;20.952;2024-03-08T12:00:14;5.50;;;3.40;;
78614;SDS011;67937;52.488;20.952;2024-03-08T12:03:02;6.00;;;3.80;;
78614;SDS011;67937;52.488;20.952;2024-03-08T12:05:30;6.70;;;4.30;;
78614;SDS011;67937;52.488;20.952;2024-03-08T12:08:00;6.20;;;3.30;;
78614;SDS011;67937;52.488;20.952;2024-03-08T12:10:29;6.80;;;4.50;;
78614;SDS011;67937;52.488;20.952;2024-03-08T12:12:57;7.80;;;4.20;;
78614;SDS011;67937;52.488;20.952;2024-03-08T12:15:28;9.10;;;4.60;;
78614;SDS011;67937;52.488;20.952;2024-03-08T12:17:59;9.50;;;4.80;;
78614;SDS011;67937;52.488;20.952;2024-03-08T12:20:28;7.40;;;4.10;;
78614;SDS011;67937;52.488;20.952;2024-03-08T12:22:57;8.00;;;3.30;;
78614;SDS011;67937;52.488;20.952;2024-03-08T12:25:35;8.10;;;4.50;;
78614;SDS011;67937;52.488;20.952;2024-03-08T12:28:09;10.40;;;5.10;;
78614;SDS011;67937;52.488;20.952;2024-03-08T12:30:46;9.30;;;4.70;;
78614;SDS011;67937;52.488;20.952;2024-03-08T12:33:17;6.10;;;4.40;;
78614;SDS011;67937;52.488;20.952;2024-03-08T12:35:51;5.40;;;4.00;;
78614;SDS011;67937;52.488;20.952;2024-03-08T12:38:21;10.50;;;5.30;;
78614;SDS011;67937;52.488;20.952;2024-03-08T12:40:54;4.60;;;3.10;;
78614;SDS011;67937;52.488;20.952;2024-03-08T12:43:23;7.70;;;4.30;;
78614;SDS011;67937;52.488;20.952;2024-03-08T12:45:51;7.70;;;4.80;;
78614;SDS011;67937;52.488;20.952;2024-03-08T12:48:19;7.80;;;4.10;;
78614;SDS011;67937;52.488;20.952;2024-03-08T12:50:47;10.40;;;5.10;;
78614;SDS011;67937;52.488;20.952;2024-03-08T12:53:17;7.10;;;4.10;;
78614;SDS011;67937;52.488;20.952;2024-03-08T12:55:46;3.70;;;2.70;;
78614;SDS011;67937;52.488;20.952;2024-03-08T12:58:14;8.50;;;4.60;;
78614;SDS011;67937;52.488;20.952;2024-03-08T13:00:42;5.10;;;4.10;;
78614;SDS011;67937;52.488;20.952;2024-03-08T13:03:10;4.10;;;3.60;;
78614;SDS011;67937;52.488;20.952;2024-03-08T13:05:38;9.90;;;5.40;;
78614;SDS011;67937;52.488;20.952;2024-03-08T13:08:09;7.60;;;3.90;;
78614;SDS011;67937;52.488;20.952;2024-03-08T13:10:39;8.00;;;4.10;;
78614;SDS011;67937;52.488;20.952;2024-03-08T13:13:10;6.10;;;4.00;;
78614;SDS011;67937;52.488;20.952;2024-03-08T13:15:41;10.20;;;5.30;;
78614;SDS011;67937;52.488;20.952;2024-03-08T13:20:37;6.50;;;3.80;;
78614;SDS011;67937;52.488;20.952;2024-03-08T13:23:05;9.20;;;5.60;;
78614;SDS011;67937;52.488;20.952;2024-03-08T13:25:34;4.80;;;4.00;;
78614;SDS011;67937;52.488;20.952;2024-03-08T13:28:05;4.70;;;3.70;;
78614;SDS011;67937;52.488;20.952;2024-03-08T13:30:33;14.10;;;6.40;;
78614;SDS011;67937;52.488;20.952;2024-03-08T13:33:01;8.30;;;4.70;;
78614;SDS011;67937;52.488;20.952;2024-03-08T13:35:31;10.60;;;4.90;;
78614;SDS011;67937;52.488;20.952;2024-03-08T13:37:59;8.90;;;4.70;;
78614;SDS011;67937;52.488;20.952;2024-03-08T13:40:29;9.70;;;5.00;;
78614;SDS011;67937;52.488;20.952;2024-03-08T13:42:57;10.60;;;5.70;;
78614;SDS011;67937;52.488;20.952;2024-03-08T13:45:27;9.00;;;5.00;;
78614;SDS011;67937;52.488;20.952;2024-03-08T13:47:55;8.60;;;4.80;;
78614;SDS011;67937;52.488;20.952;2024-03-08T13:50:24;7.60;;;3.90;;
78614;SDS011;67937;52.488;20.952;2024-03-08T13:52:53;11.70;;;5.70;;
78614;SDS011;67937;52.488;20.952;2024-03-08T13:55:21;8.10;;;5.00;;
78614;SDS011;67937;52.488;20.952;2024-03-08T13:57:49;10.10;;;4.50;;
78614;SDS011;67937;52.488;20.952;2024-03-08T14:00:18;6.70;;;4.20;;
78614;SDS011;67937;52.488;20.952;2024-03-08T14:02:49;7.30;;;4.50;;
78614;SDS011;67937;52.488;20.952;2024-03-08T14:05:17;10.20;;;4.50;;
78614;SDS011;67937;52.488;20.952;2024-03-08T14:07:46;7.00;;;4.80;;
78614;SDS011;67937;52.488;20.952;2024-03-08T14:10:15;9.10;;;5.10;;
78614;SDS011;67937;52.488;20.952;2024-03-08T14:12:46;7.60;;;4.80;;
78614;SDS011;67937;52.488;20.952;2024-03-08T14:15:15;7.80;;;5.00;;
78614;SDS011;67937;52.488;20.952;2024-03-08T14:17:43;7.20;;;4.40;;
78614;SDS011;67937;52.488;20.952;2024-03-08T14:20:12;9.30;;;5.60;;
78614;SDS011;67937;52.488;20.952;2024-03-08T14:22:40;9.20;;;5.10;;
78614;SDS011;67937;52.488;20.952;2024-03-08T14:25:08;8.00;;;5.00;;
78614;SDS011;67937;52.488;20.952;2024-03-08T14:27:44;8.80;;;3.70;;
78614;SDS011;67937;52.488;20.952;2024-03-08T14:30:13;10.40;;;3.80;;
78614;SDS011;67937;52.488;20.952;2024-03-08T14:32:54;8.50;;;4.00;;
78614;SDS011;67937;52.488;20.952;2024-03-08T14:35:22;6.50;;;3.70;;
78614;SDS011;67937;52.488;20.952;2024-03-08T14:37:52;6.20;;;3.90;;
78614;SDS011;67937;52.488;20.952;2024-03-08T14:40:20;9.20;;;4.50;;
78614;SDS011;67937;52.488;20.952;2024-03-08T14:42:50;6.90;;;4.20;;
78614;SDS011;67937;52.488;20.952;2024-03-08T14:45:18;6.20;;;4.70;;
78614;SDS011;67937;52.488;20.952;2024-03-08T14:47:47;8.90;;;4.70;;